createdAt,value
2023-03-30T00:01:14.923Z,92.80
2023-03-30T00:03:44.146Z,93.60
2023-03-30T00:06:14.754Z,99.90
2023-03-30T00:08:44.203Z,99.90
2023-03-30T00:11:15.515Z,99.90
2023-03-30T00:13:44.313Z,99.90
2023-03-30T00:16:14.394Z,99.90
2023-03-30T00:18:42.605Z,99.90
2023-03-30T00:21:11.073Z,99.90
2023-03-30T00:23:39.477Z,99.90
2023-03-30T00:26:09.766Z,99.90
2023-03-30T00:28:37.831Z,99.90
2023-03-30T00:31:06.144Z,99.90
2023-03-30T00:33:44.769Z,99.90
2023-03-30T00:36:14.697Z,99.90
2023-03-30T00:38:42.882Z,99.90
2023-03-30T00:41:12.401Z,99.90
2023-03-30T00:43:55.133Z,99.90
2023-03-30T00:46:24.274Z,99.90
2023-03-30T00:48:52.417Z,99.90
2023-03-30T00:51:20.871Z,99.90
2023-03-30T00:53:51.716Z,99.90
2023-03-30T00:56:27.206Z,99.90
2023-03-30T00:58:55.820Z,99.90
2023-03-30T01:01:28.526Z,99.90
2023-03-30T01:04:00.704Z,99.90
2023-03-30T01:06:31.683Z,99.90
2023-03-30T01:09:00.505Z,99.90
2023-03-30T01:11:30.096Z,99.90
2023-03-30T01:14:02.282Z,99.90
2023-03-30T01:16:38.356Z,99.90
2023-03-30T01:19:25.073Z,99.90
2023-03-30T01:22:13.241Z,99.90
2023-03-30T01:25:18.394Z,99.90
2023-03-30T01:28:11.128Z,99.90
2023-03-30T01:31:25.639Z,99.90
2023-03-30T01:34:23.591Z,99.90
2023-03-30T01:37:29.743Z,99.90
2023-03-30T01:40:09.285Z,99.90
2023-03-30T01:42:40.395Z,99.90
2023-03-30T01:45:14.513Z,99.90
2023-03-30T01:47:48.506Z,99.90
2023-03-30T01:50:21.910Z,99.90
2023-03-30T01:52:55.609Z,99.90
2023-03-30T01:55:28.536Z,99.90
2023-03-30T01:58:02.797Z,99.90
2023-03-30T02:00:31.892Z,99.90
2023-03-30T02:03:05.582Z,99.90
2023-03-30T02:05:34.892Z,99.90
2023-03-30T02:08:08.414Z,99.90
2023-03-30T02:10:39.499Z,99.90
2023-03-30T02:13:08.580Z,99.90
2023-03-30T02:15:40.846Z,99.90
2023-03-30T02:18:09.966Z,99.90
2023-03-30T02:20:39.021Z,99.90
2023-03-30T02:23:08.472Z,99.90
2023-03-30T02:25:39.349Z,99.90
2023-03-30T02:28:08.721Z,99.90
2023-03-30T02:30:40.475Z,99.90
2023-03-30T02:33:12.020Z,99.90
2023-03-30T02:35:59.692Z,99.90
2023-03-30T02:39:00.653Z,99.90
2023-03-30T02:41:51.072Z,99.90
2023-03-30T02:44:31.563Z,99.90
2023-03-30T02:47:09.118Z,99.90
2023-03-30T02:49:47.687Z,99.90
2023-03-30T02:52:24.617Z,99.90
2023-03-30T02:54:59.063Z,99.90
2023-03-30T02:57:35.195Z,99.90
2023-03-30T03:00:10.614Z,99.90
2023-03-30T03:02:41.230Z,99.90
2023-03-30T03:05:11.196Z,99.90
2023-03-30T03:07:40.690Z,99.90
2023-03-30T03:10:09.255Z,99.90
2023-03-30T03:12:38.698Z,99.90
2023-03-30T03:15:06.991Z,99.90
2023-03-30T03:17:35.593Z,99.90
2023-03-30T03:20:04.679Z,99.90
2023-03-30T03:22:33.061Z,99.90
2023-03-30T03:25:02.519Z,99.90
2023-03-30T03:27:30.696Z,99.90
2023-03-30T03:30:00.156Z,99.90
2023-03-30T03:32:28.337Z,99.90
2023-03-30T03:34:56.455Z,99.90
2023-03-30T03:37:24.523Z,99.90
2023-03-30T03:39:52.581Z,99.90
2023-03-30T03:42:21.022Z,99.90
2023-03-30T03:44:49.085Z,99.90
2023-03-30T03:47:18.568Z,99.90
2023-03-30T03:49:46.592Z,99.90
2023-03-30T03:52:14.639Z,99.90
2023-03-30T03:54:42.684Z,99.90
2023-03-30T03:57:10.792Z,99.90
2023-03-30T03:59:38.899Z,99.90
2023-03-30T04:02:07.057Z,99.90
2023-03-30T04:04:36.533Z,99.90
2023-03-30T04:07:05.638Z,99.90
2023-03-30T04:09:33.707Z,99.90
2023-03-30T04:12:01.750Z,99.90
2023-03-30T04:14:29.827Z,99.90
2023-03-30T04:16:58.172Z,99.90
2023-03-30T04:19:27.745Z,99.90
2023-03-30T04:21:58.865Z,99.90
2023-03-30T04:24:29.727Z,99.90
2023-03-30T04:26:58.661Z,99.90
2023-03-30T04:29:26.692Z,99.90
2023-03-30T04:31:56.644Z,99.90
2023-03-30T04:34:26.744Z,99.90
2023-03-30T04:36:54.773Z,99.90
2023-03-30T04:39:24.179Z,99.90
2023-03-30T04:41:54.201Z,99.90
2023-03-30T04:44:22.367Z,99.90
2023-03-30T04:46:50.496Z,99.90
2023-03-30T04:49:18.564Z,99.90
2023-03-30T04:51:46.616Z,99.90
2023-03-30T04:54:14.680Z,99.90
2023-03-30T04:56:44.216Z,99.90
2023-03-30T04:59:12.137Z,99.90
2023-03-30T05:01:40.247Z,99.90
2023-03-30T05:04:08.722Z,99.90
2023-03-30T05:06:36.797Z,99.90
2023-03-30T05:09:04.964Z,99.90
2023-03-30T05:11:33.082Z,99.90
2023-03-30T05:14:02.524Z,99.90
2023-03-30T05:16:30.678Z,99.90
2023-03-30T05:18:58.808Z,99.90
2023-03-30T05:21:26.839Z,99.90
2023-03-30T05:23:54.884Z,99.90
2023-03-30T05:26:23.891Z,99.90
2023-03-30T05:28:52.436Z,99.90
2023-03-30T05:31:22.513Z,99.90
2023-03-30T05:33:52.017Z,99.90
2023-03-30T05:36:20.127Z,99.90
2023-03-30T05:38:48.285Z,99.90
2023-03-30T05:41:17.337Z,99.90
2023-03-30T05:43:45.646Z,99.90
2023-03-30T05:46:13.800Z,99.90
2023-03-30T05:48:43.332Z,99.90
2023-03-30T05:51:11.439Z,99.90
2023-03-30T05:53:39.517Z,99.90
2023-03-30T05:56:08.301Z,99.90
2023-03-30T05:58:36.858Z,99.90
2023-03-30T06:01:05.929Z,99.90
2023-03-30T06:03:34.431Z,99.90
2023-03-30T06:06:05.032Z,99.90
2023-03-30T06:08:33.242Z,99.90
2023-03-30T06:11:02.144Z,99.90
2023-03-30T06:13:30.483Z,99.90
2023-03-30T06:15:59.679Z,99.90
2023-03-30T06:18:29.676Z,99.90
2023-03-30T06:20:58.497Z,99.90
2023-03-30T06:23:28.443Z,99.90
2023-03-30T06:25:56.529Z,99.90
2023-03-30T06:28:24.621Z,99.90
2023-03-30T06:30:53.722Z,99.90
2023-03-30T06:33:21.860Z,99.90
2023-03-30T06:35:52.451Z,99.90
2023-03-30T06:38:21.675Z,99.90
2023-03-30T06:40:51.405Z,99.90
2023-03-30T06:43:22.161Z,99.90
2023-03-30T06:45:54.370Z,99.90
2023-03-30T06:48:23.959Z,99.90
2023-03-30T06:50:52.410Z,99.90
2023-03-30T06:53:20.708Z,99.90
2023-03-30T06:55:54.232Z,99.90
2023-03-30T06:58:22.648Z,99.90
2023-03-30T07:00:51.157Z,99.90
2023-03-30T07:03:20.181Z,99.90
2023-03-30T07:05:48.795Z,99.90
2023-03-30T07:08:17.069Z,99.40
2023-03-30T07:10:45.226Z,95.60
2023-03-30T07:13:16.453Z,96.90
2023-03-30T07:15:45.327Z,96.00
2023-03-30T07:18:13.722Z,94.20
2023-03-30T07:20:41.869Z,99.40
2023-03-30T07:23:11.375Z,99.90
2023-03-30T07:25:39.519Z,99.90
2023-03-30T07:28:07.977Z,99.90
2023-03-30T07:30:39.036Z,99.90
2023-03-30T07:33:07.292Z,99.90
2023-03-30T07:35:35.545Z,99.90
2023-03-30T07:38:04.159Z,99.90
2023-03-30T07:40:32.465Z,99.90
2023-03-30T07:43:00.656Z,99.90
2023-03-30T07:45:28.699Z,99.90
2023-03-30T07:47:58.147Z,99.90
2023-03-30T07:50:26.426Z,99.90
2023-03-30T07:52:54.473Z,99.90
2023-03-30T07:55:22.471Z,99.90
2023-03-30T07:57:50.537Z,99.90
2023-03-30T08:00:21.657Z,99.90
2023-03-30T08:02:50.130Z,99.90
2023-03-30T08:05:19.838Z,99.90
2023-03-30T08:07:48.003Z,99.90
2023-03-30T08:10:16.131Z,99.90
2023-03-30T08:12:44.203Z,99.50
2023-03-30T08:15:12.806Z,99.90
2023-03-30T08:17:41.277Z,99.90
2023-03-30T08:20:11.707Z,99.90
2023-03-30T08:22:41.527Z,99.90
2023-03-30T08:25:10.275Z,99.20
2023-03-30T08:27:38.344Z,99.00
2023-03-30T08:30:07.731Z,98.20
2023-03-30T08:32:35.678Z,99.80
2023-03-30T08:35:03.808Z,99.00
2023-03-30T08:37:31.848Z,99.60
2023-03-30T08:40:01.253Z,98.40
2023-03-30T08:42:40.721Z,97.90
2023-03-30T08:45:11.230Z,98.00
2023-03-30T08:47:42.813Z,98.50
2023-03-30T08:50:15.841Z,98.30
2023-03-30T08:52:44.361Z,98.60
2023-03-30T08:55:24.344Z,97.90
2023-03-30T08:57:57.041Z,98.60
2023-03-30T09:00:32.737Z,98.70
2023-03-30T09:03:09.655Z,97.80
2023-03-30T09:05:43.940Z,98.60
2023-03-30T09:08:18.317Z,98.50
2023-03-30T09:10:52.538Z,99.50
2023-03-30T09:13:24.616Z,98.90
2023-03-30T09:15:57.892Z,98.50
2023-03-30T09:18:30.520Z,98.60
2023-03-30T09:21:01.877Z,98.30
2023-03-30T09:23:31.912Z,97.60
2023-03-30T09:26:13.210Z,98.10
2023-03-30T09:28:48.262Z,97.80
2023-03-30T09:31:22.124Z,98.30
2023-03-30T09:33:58.387Z,98.30
2023-03-30T09:36:32.552Z,98.20
2023-03-30T09:39:00.700Z,97.70
2023-03-30T09:41:52.570Z,97.70
2023-03-30T09:44:27.978Z,98.30
2023-03-30T09:47:00.345Z,98.50
2023-03-30T09:49:30.454Z,99.20
2023-03-30T09:52:04.321Z,99.80
2023-03-30T09:54:37.803Z,99.90
2023-03-30T09:57:08.123Z,99.90
2023-03-30T09:59:38.577Z,99.90
2023-03-30T10:02:21.546Z,99.70
2023-03-30T10:05:02.267Z,99.90
2023-03-30T10:07:34.236Z,99.90
2023-03-30T10:10:14.330Z,99.30
2023-03-30T10:12:44.326Z,99.20
2023-03-30T10:15:18.758Z,99.20
2023-03-30T10:17:48.440Z,98.90
2023-03-30T10:20:24.065Z,99.10
2023-03-30T10:22:55.198Z,98.10
2023-03-30T10:25:25.161Z,96.90
2023-03-30T10:27:57.599Z,97.00
2023-03-30T10:30:28.384Z,95.30
2023-03-30T10:33:00.590Z,95.50
2023-03-30T10:35:34.013Z,94.80
2023-03-30T10:38:05.030Z,94.60
2023-03-30T10:40:36.646Z,94.80
2023-03-30T10:43:08.803Z,95.40
2023-03-30T10:45:42.856Z,94.70
2023-03-30T10:48:38.506Z,93.80
2023-03-30T10:51:14.630Z,93.70
2023-03-30T10:53:52.441Z,93.10
2023-03-30T10:56:31.784Z,92.00
2023-03-30T10:59:17.279Z,92.20
2023-03-30T11:01:58.850Z,92.10
2023-03-30T11:04:35.140Z,92.20
2023-03-30T11:07:03.916Z,93.00
2023-03-30T11:09:35.800Z,93.50
2023-03-30T11:12:08.908Z,93.60
2023-03-30T11:14:45.482Z,94.00
2023-03-30T11:17:23.951Z,94.50
2023-03-30T11:19:56.649Z,94.70
2023-03-30T11:22:36.077Z,94.30
2023-03-30T11:25:09.458Z,94.20
2023-03-30T11:27:44.521Z,95.00
2023-03-30T11:30:18.674Z,94.90
2023-03-30T11:32:55.279Z,94.80
2023-03-30T11:35:30.351Z,94.90
2023-03-30T11:38:02.391Z,95.20
2023-03-30T11:40:39.925Z,95.40
2023-03-30T11:43:11.518Z,95.10
2023-03-30T11:45:50.911Z,95.40
2023-03-30T11:48:28.608Z,95.50
2023-03-30T11:51:08.901Z,95.40
2023-03-30T11:53:46.861Z,96.00
2023-03-30T11:56:25.086Z,96.00
2023-03-30T11:59:02.825Z,96.50
2023-03-30T12:01:48.698Z,96.50
2023-03-30T12:04:25.419Z,96.60
2023-03-30T12:06:58.273Z,95.80
2023-03-30T12:09:29.944Z,95.70
2023-03-30T12:12:06.184Z,95.40
2023-03-30T12:15:03.531Z,95.30
2023-03-30T12:17:40.659Z,95.40
2023-03-30T12:20:22.301Z,95.20
2023-03-30T12:22:57.194Z,95.30
2023-03-30T12:25:33.548Z,95.90
2023-03-30T12:28:12.178Z,95.70
2023-03-30T12:30:45.610Z,96.40
2023-03-30T12:33:18.275Z,96.40
2023-03-30T12:35:57.358Z,96.00
2023-03-30T12:38:27.262Z,95.90
2023-03-30T12:41:05.171Z,95.90
2023-03-30T12:43:42.444Z,95.70
2023-03-30T12:46:20.449Z,96.00
2023-03-30T12:49:04.257Z,95.10
2023-03-30T12:51:51.953Z,94.40
2023-03-30T12:55:04.012Z,94.50
2023-03-30T12:57:42.984Z,93.80
2023-03-30T13:00:36.318Z,94.50
2023-03-30T13:03:32.219Z,94.80
2023-03-30T13:06:02.393Z,96.10
2023-03-30T13:08:35.913Z,95.20
2023-03-30T13:11:09.960Z,94.80
2023-03-30T13:13:51.350Z,95.90
2023-03-30T13:16:49.763Z,94.60
2023-03-30T13:19:28.718Z,93.50
2023-03-30T13:21:58.783Z,95.20
2023-03-30T13:24:41.081Z,95.90
2023-03-30T13:27:23.661Z,96.80
2023-03-30T13:29:55.582Z,97.10
2023-03-30T13:32:34.297Z,97.50
2023-03-30T13:35:14.716Z,98.20
2023-03-30T13:37:59.645Z,98.80
2023-03-30T13:40:41.996Z,99.40
2023-03-30T13:43:23.899Z,99.20
2023-03-30T13:46:13.242Z,99.80
2023-03-30T13:48:59.543Z,99.90
2023-03-30T13:51:30.121Z,99.90
2023-03-30T13:54:02.117Z,99.90
2023-03-30T13:56:36.805Z,99.90
2023-03-30T13:59:07.664Z,99.90
2023-03-30T14:01:39.746Z,99.90
2023-03-30T14:04:13.696Z,99.90
2023-03-30T14:06:45.700Z,99.90
2023-03-30T14:09:18.447Z,99.90
2023-03-30T14:11:51.208Z,99.90
2023-03-30T14:14:23.190Z,99.90
2023-03-30T14:16:51.887Z,99.90
2023-03-30T14:19:25.876Z,99.90
2023-03-30T14:21:58.113Z,99.90
2023-03-30T14:24:30.892Z,99.90
2023-03-30T14:27:08.262Z,99.90
2023-03-30T14:29:45.669Z,99.90
2023-03-30T14:32:15.524Z,99.90
2023-03-30T14:34:47.570Z,99.90
2023-03-30T14:37:15.746Z,99.90
2023-03-30T14:39:46.827Z,99.90
2023-03-30T14:42:19.629Z,99.90
2023-03-30T14:44:49.766Z,99.90
2023-03-30T14:47:21.361Z,99.90
2023-03-30T14:49:52.483Z,99.90
2023-03-30T14:52:22.624Z,99.90
2023-03-30T14:55:02.545Z,99.90
2023-03-30T14:57:39.437Z,99.90
2023-03-30T15:00:18.589Z,99.90
2023-03-30T15:02:47.941Z,99.90
2023-03-30T15:05:18.354Z,99.90
2023-03-30T15:07:49.880Z,99.90
2023-03-30T15:10:26.955Z,99.90
2023-03-30T15:12:58.810Z,99.90
2023-03-30T15:15:30.756Z,99.90
2023-03-30T15:17:59.632Z,99.90
2023-03-30T15:20:30.890Z,99.90
2023-03-30T15:23:00.765Z,99.90
2023-03-30T15:25:32.360Z,99.90
2023-03-30T15:28:04.803Z,99.90
2023-03-30T15:30:37.444Z,99.90
2023-03-30T15:33:07.541Z,99.90
2023-03-30T15:35:38.151Z,99.90
2023-03-30T15:38:16.927Z,99.90
2023-03-30T15:40:46.519Z,99.90
2023-03-30T15:43:17.046Z,99.90
2023-03-30T15:45:54.176Z,99.90
2023-03-30T15:48:25.473Z,99.90
2023-03-30T15:51:01.233Z,99.90
2023-03-30T15:53:36.430Z,99.90
2023-03-30T15:56:06.411Z,99.90
2023-03-30T15:58:36.281Z,99.90
2023-03-30T16:01:06.136Z,99.90
2023-03-30T16:03:39.350Z,99.90
2023-03-30T16:06:08.381Z,99.90
2023-03-30T16:08:41.877Z,99.90
2023-03-30T16:11:10.762Z,99.90
2023-03-30T16:13:43.502Z,99.90
2023-03-30T16:16:13.833Z,99.90
2023-03-30T16:18:42.833Z,99.90
2023-03-30T16:21:12.345Z,99.90
2023-03-30T16:23:40.388Z,99.90
2023-03-30T16:26:09.728Z,99.90
2023-03-30T16:28:37.881Z,99.90
2023-03-30T16:31:13.987Z,99.90
2023-03-30T16:33:42.087Z,99.90
2023-03-30T16:36:14.890Z,99.90
2023-03-30T16:38:43.095Z,99.90
2023-03-30T16:41:16.714Z,99.90
2023-03-30T16:43:45.046Z,99.90
2023-03-30T16:46:15.923Z,99.90
2023-03-30T16:48:44.247Z,99.90
2023-03-30T16:51:13.263Z,99.90
2023-03-30T16:53:41.909Z,99.90
2023-03-30T16:56:16.322Z,99.90
2023-03-30T16:58:44.486Z,99.90
2023-03-30T17:01:18.386Z,99.90
2023-03-30T17:03:46.887Z,99.90
2023-03-30T17:06:16.875Z,99.90
2023-03-30T17:08:45.337Z,99.90
2023-03-30T17:11:13.822Z,99.90
2023-03-30T17:13:43.108Z,99.90
2023-03-30T17:16:15.732Z,99.90
2023-03-30T17:18:43.901Z,99.90
2023-03-30T17:21:16.281Z,99.90
2023-03-30T17:23:45.142Z,99.90
2023-03-30T17:26:13.610Z,99.90
2023-03-30T17:28:42.116Z,99.90
2023-03-30T17:31:17.650Z,99.90
2023-03-30T17:33:45.958Z,99.90
2023-03-30T17:36:18.519Z,99.90
2023-03-30T17:38:46.941Z,99.90
2023-03-30T17:41:17.013Z,99.90
2023-03-30T17:43:45.078Z,99.90
2023-03-30T17:46:14.868Z,99.90
2023-03-30T17:48:44.385Z,99.90
2023-03-30T17:51:12.248Z,99.90
2023-03-30T17:53:40.419Z,99.90
2023-03-30T17:56:08.578Z,99.90
2023-03-30T17:58:37.644Z,99.90
2023-03-30T18:01:07.499Z,99.90
2023-03-30T18:03:38.578Z,99.90
2023-03-30T18:06:08.679Z,99.90
2023-03-30T18:08:37.802Z,99.90
2023-03-30T18:11:06.453Z,99.90
2023-03-30T18:13:34.681Z,99.90
2023-03-30T18:16:02.864Z,99.90
2023-03-30T18:18:32.559Z,99.90
2023-03-30T18:21:03.749Z,99.90
2023-03-30T18:23:35.028Z,99.90
2023-03-30T18:26:07.086Z,99.90
2023-03-30T18:28:40.255Z,99.90
2023-03-30T18:31:08.739Z,99.90
2023-03-30T18:33:37.142Z,99.90
2023-03-30T18:36:07.879Z,99.90
2023-03-30T18:38:37.693Z,99.90
2023-03-30T18:41:06.558Z,99.90
2023-03-30T18:43:35.670Z,99.90
2023-03-30T18:46:04.506Z,99.90
2023-03-30T18:48:32.691Z,99.90
2023-03-30T18:51:00.815Z,99.90
2023-03-30T18:53:29.899Z,99.90
2023-03-30T18:56:00.844Z,99.90
2023-03-30T18:58:30.929Z,99.90
2023-03-30T19:00:59.098Z,99.90
2023-03-30T19:03:28.520Z,99.90
2023-03-30T19:05:56.747Z,99.90
2023-03-30T19:08:27.133Z,99.90
2023-03-30T19:10:56.834Z,99.90
2023-03-30T19:13:27.780Z,99.90
2023-03-30T19:15:56.114Z,99.90
2023-03-30T19:18:24.219Z,99.90
2023-03-30T19:20:55.132Z,99.90
2023-03-30T19:23:23.290Z,99.90
2023-03-30T19:25:51.508Z,99.90
2023-03-30T19:28:20.488Z,99.90
2023-03-30T19:30:50.482Z,99.90
2023-03-30T19:33:20.803Z,99.90
2023-03-30T19:35:48.941Z,99.90
2023-03-30T19:38:17.393Z,99.90
2023-03-30T19:40:45.652Z,99.90
2023-03-30T19:43:13.762Z,99.90
2023-03-30T19:45:41.841Z,99.90
2023-03-30T19:48:11.302Z,99.90
2023-03-30T19:50:40.675Z,99.90
2023-03-30T19:53:09.119Z,99.90
2023-03-30T19:55:37.809Z,99.90
2023-03-30T19:58:05.979Z,99.90
2023-03-30T20:00:34.985Z,99.90
2023-03-30T20:03:03.683Z,99.90
2023-03-30T20:05:33.369Z,99.90
2023-03-30T20:08:10.429Z,99.90
2023-03-30T20:10:49.406Z,99.90
2023-03-30T20:13:21.723Z,99.90
2023-03-30T20:15:54.265Z,99.90
2023-03-30T20:18:22.386Z,99.90
2023-03-30T20:20:51.848Z,99.90
2023-03-30T20:23:20.090Z,99.90
2023-03-30T20:25:49.445Z,99.90
2023-03-30T20:28:17.486Z,99.90
2023-03-30T20:30:45.565Z,99.90
2023-03-30T20:33:13.666Z,99.90
2023-03-30T20:35:41.782Z,99.90
2023-03-30T20:38:11.405Z,99.90
2023-03-30T20:40:39.477Z,99.90
2023-03-30T20:43:10.055Z,99.90
2023-03-30T20:45:46.032Z,99.90
2023-03-30T20:48:26.076Z,99.90
2023-03-30T20:50:55.047Z,99.90
2023-03-30T20:53:25.019Z,99.90
2023-03-30T20:55:53.146Z,99.90
2023-03-30T20:58:22.416Z,99.90
2023-03-30T21:00:51.917Z,99.90
2023-03-30T21:03:20.310Z,99.90
2023-03-30T21:05:58.705Z,99.90
2023-03-30T21:08:28.520Z,99.90
2023-03-30T21:10:56.948Z,99.90
2023-03-30T21:13:24.990Z,99.90
2023-03-30T21:15:57.697Z,99.90
2023-03-30T21:18:25.911Z,99.90
2023-03-30T21:20:54.414Z,99.90
2023-03-30T21:23:25.274Z,99.90
2023-03-30T21:25:57.637Z,99.90
2023-03-30T21:28:28.485Z,99.90
2023-03-30T21:30:57.538Z,99.90
2023-03-30T21:33:26.236Z,99.90
2023-03-30T21:35:55.405Z,99.90
2023-03-30T21:38:24.493Z,99.90
2023-03-30T21:41:01.983Z,99.90
2023-03-30T21:43:31.406Z,99.90
2023-03-30T21:46:02.076Z,99.90
2023-03-30T21:48:32.680Z,99.90
2023-03-30T21:51:02.654Z,99.90
2023-03-30T21:53:31.575Z,99.90
2023-03-30T21:56:01.709Z,99.90
2023-03-30T21:58:29.911Z,99.90
2023-03-30T22:01:08.865Z,99.90
2023-03-30T22:03:40.781Z,99.90
2023-03-30T22:06:11.296Z,99.90
2023-03-30T22:08:39.616Z,99.90
2023-03-30T22:11:13.201Z,99.90
2023-03-30T22:13:41.543Z,99.90
2023-03-30T22:16:13.837Z,99.90
2023-03-30T22:18:42.072Z,99.90
2023-03-30T22:21:13.652Z,99.90
2023-03-30T22:23:41.977Z,99.90
2023-03-30T22:26:11.973Z,99.90
2023-03-30T22:28:40.451Z,99.90
2023-03-30T22:31:08.918Z,99.90
2023-03-30T22:33:37.008Z,99.90
2023-03-30T22:36:07.211Z,99.90
2023-03-30T22:38:35.667Z,99.90
2023-03-30T22:41:07.251Z,99.90
2023-03-30T22:43:38.264Z,99.90
2023-03-30T22:46:07.059Z,99.90
2023-03-30T22:48:35.995Z,99.90
2023-03-30T22:51:04.475Z,99.90
2023-03-30T22:53:33.397Z,99.90
2023-03-30T22:56:01.596Z,99.90
2023-03-30T22:58:29.732Z,99.90
2023-03-30T23:01:02.759Z,99.90
2023-03-30T23:03:31.427Z,99.90
2023-03-30T23:06:02.509Z,99.90
2023-03-30T23:08:31.141Z,99.90
2023-03-30T23:11:04.045Z,99.90
2023-03-30T23:13:32.630Z,99.90
2023-03-30T23:16:02.087Z,99.90
2023-03-30T23:18:30.417Z,99.90
2023-03-30T23:20:58.531Z,99.90
2023-03-30T23:23:26.992Z,99.90
2023-03-30T23:25:55.063Z,99.90
2023-03-30T23:28:23.167Z,99.90
2023-03-30T23:30:51.363Z,99.90
2023-03-30T23:33:21.548Z,99.90
2023-03-30T23:35:50.791Z,99.90
2023-03-30T23:38:18.958Z,99.90
2023-03-30T23:40:47.058Z,99.90
2023-03-30T23:43:15.139Z,99.90
2023-03-30T23:45:44.243Z,99.90
2023-03-30T23:48:12.326Z,99.90
2023-03-30T23:50:41.819Z,99.90
2023-03-30T23:53:09.666Z,99.90
2023-03-30T23:55:37.693Z,99.90
2023-03-30T23:58:05.978Z,99.90
